createdAt,value
2023-09-30T00:00:25.931Z,27.65
2023-09-30T00:02:54.182Z,27.66
2023-09-30T00:05:22.933Z,27.59
2023-09-30T00:07:51.034Z,27.64
2023-09-30T00:10:19.250Z,27.63
2023-09-30T00:12:47.744Z,27.67
2023-09-30T00:15:16.123Z,27.50
2023-09-30T00:17:44.462Z,27.67
2023-09-30T00:20:13.156Z,27.56
2023-09-30T00:22:41.341Z,27.69
2023-09-30T00:25:09.944Z,27.69
2023-09-30T00:27:38.404Z,27.68
2023-09-30T00:30:07.726Z,27.59
2023-09-30T00:32:36.172Z,27.52
2023-09-30T00:35:04.852Z,27.68
2023-09-30T00:37:32.944Z,27.66
2023-09-30T00:40:01.108Z,27.64
2023-09-30T00:42:29.186Z,27.70
2023-09-30T00:44:57.368Z,27.53
2023-09-30T00:47:25.811Z,27.70
2023-09-30T00:49:54.993Z,27.69
2023-09-30T00:52:23.936Z,27.71
2023-09-30T00:54:54.229Z,27.55
2023-09-30T00:57:23.173Z,27.70
2023-09-30T00:59:52.424Z,27.71
2023-09-30T01:02:20.873Z,27.69
2023-09-30T01:04:48.926Z,27.71
2023-09-30T01:07:18.604Z,27.67
2023-09-30T01:09:47.733Z,27.70
2023-09-30T01:12:15.718Z,27.67
2023-09-30T01:14:43.914Z,27.69
2023-09-30T01:17:15.230Z,27.56
2023-09-30T01:19:46.462Z,27.68
2023-09-30T01:22:14.723Z,27.60
2023-09-30T01:24:43.944Z,27.67
2023-09-30T01:27:12.154Z,27.68
2023-09-30T01:29:40.209Z,27.64
2023-09-30T01:32:10.368Z,27.65
2023-09-30T01:34:38.631Z,27.61
2023-09-30T01:37:07.549Z,27.58
2023-09-30T01:39:35.647Z,27.62
2023-09-30T01:42:04.376Z,27.56
2023-09-30T01:44:34.837Z,27.55
2023-09-30T01:47:04.477Z,27.58
2023-09-30T01:49:32.989Z,27.50
2023-09-30T01:52:01.051Z,27.57
2023-09-30T01:54:29.049Z,27.46
2023-09-30T01:56:57.315Z,27.57
2023-09-30T01:59:26.622Z,27.57
2023-09-30T02:01:54.962Z,27.56
2023-09-30T02:04:23.081Z,27.56
2023-09-30T02:06:51.413Z,27.44
2023-09-30T02:09:19.948Z,27.47
2023-09-30T02:11:49.280Z,27.50
2023-09-30T02:14:17.252Z,27.57
2023-09-30T02:16:45.312Z,27.45
2023-09-30T02:19:14.789Z,27.55
2023-09-30T02:21:42.873Z,27.57
2023-09-30T02:24:11.513Z,27.58
2023-09-30T02:26:40.524Z,27.55
2023-09-30T02:29:09.167Z,27.53
2023-09-30T02:31:37.532Z,27.58
2023-09-30T02:34:05.434Z,27.57
2023-09-30T02:36:33.708Z,27.59
2023-09-30T02:39:02.566Z,27.57
2023-09-30T02:41:30.845Z,27.61
2023-09-30T02:43:59.267Z,27.60
2023-09-30T02:46:29.598Z,27.62
2023-09-30T02:48:58.169Z,27.54
2023-09-30T02:51:26.802Z,27.63
2023-09-30T02:53:58.580Z,27.55
2023-09-30T02:56:27.664Z,27.64
2023-09-30T02:58:56.804Z,27.66
2023-09-30T03:01:25.493Z,27.57
2023-09-30T03:03:53.636Z,27.69
2023-09-30T03:06:22.366Z,27.69
2023-09-30T03:08:50.819Z,27.65
2023-09-30T03:11:23.973Z,27.67
2023-09-30T03:13:52.313Z,27.52
2023-09-30T03:16:21.520Z,27.63
2023-09-30T03:18:50.644Z,27.62
2023-09-30T03:21:18.958Z,27.63
2023-09-30T03:23:48.134Z,27.63
2023-09-30T03:26:16.859Z,27.59
2023-09-30T03:28:45.154Z,27.63
2023-09-30T03:31:13.256Z,27.63
2023-09-30T03:33:41.338Z,27.62
2023-09-30T03:36:10.807Z,27.46
2023-09-30T03:38:40.745Z,27.63
2023-09-30T03:41:09.829Z,27.62
2023-09-30T03:43:42.195Z,27.62
2023-09-30T03:46:10.895Z,27.59
2023-09-30T03:48:40.980Z,27.61
2023-09-30T03:51:16.341Z,27.66
2023-09-30T03:53:46.377Z,27.62
2023-09-30T03:56:14.716Z,27.61
2023-09-30T03:58:43.833Z,27.50
2023-09-30T04:01:12.689Z,27.63
2023-09-30T04:03:42.244Z,27.50
2023-09-30T04:06:10.639Z,27.63
2023-09-30T04:08:39.522Z,27.64
2023-09-30T04:11:07.967Z,27.59
2023-09-30T04:13:36.270Z,27.63
2023-09-30T04:16:04.394Z,27.63
2023-09-30T04:18:32.733Z,27.64
2023-09-30T04:21:00.951Z,27.46
2023-09-30T04:23:29.224Z,27.58
2023-09-30T04:25:57.219Z,27.55
2023-09-30T04:28:25.993Z,27.53
2023-09-30T04:30:54.910Z,27.58
2023-09-30T04:33:26.098Z,27.62
2023-09-30T04:35:54.161Z,27.54
2023-09-30T04:38:22.676Z,27.61
2023-09-30T04:40:52.697Z,27.59
2023-09-30T04:43:20.821Z,27.55
2023-09-30T04:45:51.216Z,27.60
2023-09-30T04:48:19.947Z,27.56
2023-09-30T04:50:48.550Z,27.59
2023-09-30T04:53:18.688Z,27.59
2023-09-30T04:58:14.412Z,27.46
2023-09-30T05:00:42.533Z,27.55
2023-09-30T05:03:11.025Z,27.55
2023-09-30T05:05:39.353Z,27.45
2023-09-30T05:08:08.151Z,27.55
2023-09-30T05:10:36.074Z,27.48
2023-09-30T05:13:04.397Z,27.44
2023-09-30T05:15:34.077Z,27.50
2023-09-30T05:18:02.316Z,27.48
2023-09-30T05:20:30.660Z,27.43
2023-09-30T05:22:59.210Z,27.45
2023-09-30T05:25:29.300Z,27.44
2023-09-30T05:27:58.050Z,27.39
2023-09-30T05:30:26.837Z,27.46
2023-09-30T05:32:55.719Z,27.29
2023-09-30T05:35:25.283Z,27.43
2023-09-30T05:37:54.349Z,27.16
2023-09-30T05:40:31.871Z,27.47
2023-09-30T05:43:00.835Z,27.46
2023-09-30T05:45:32.866Z,27.46
2023-09-30T05:48:06.019Z,27.47
2023-09-30T05:50:35.843Z,27.47
2023-09-30T05:53:06.100Z,27.39
2023-09-30T05:55:34.871Z,27.45
2023-09-30T05:58:03.258Z,27.48
2023-09-30T06:00:36.826Z,27.45
2023-09-30T06:03:09.045Z,27.47
2023-09-30T06:05:41.844Z,27.46
2023-09-30T06:08:17.627Z,27.46
2023-09-30T06:10:45.751Z,27.46
2023-09-30T06:13:15.658Z,27.45
2023-09-30T06:15:45.197Z,27.46
2023-09-30T06:18:15.266Z,27.44
2023-09-30T06:20:43.878Z,27.44
2023-09-30T06:23:11.924Z,27.44
2023-09-30T06:25:41.421Z,27.41
2023-09-30T06:28:10.080Z,27.43
2023-09-30T06:30:38.660Z,27.33
2023-09-30T06:33:07.421Z,27.32
2023-09-30T06:35:39.175Z,27.51
2023-09-30T06:38:10.381Z,27.02
2023-09-30T06:40:41.326Z,27.53
2023-09-30T06:43:10.412Z,27.53
2023-09-30T06:45:43.421Z,27.53
2023-09-30T06:48:16.522Z,27.54
2023-09-30T06:50:50.037Z,27.42
2023-09-30T06:53:19.819Z,27.55
2023-09-30T06:55:48.468Z,27.48
2023-09-30T06:58:22.924Z,27.53
2023-09-30T07:00:52.359Z,27.57
2023-09-30T07:03:24.129Z,27.57
2023-09-30T07:05:55.839Z,27.57
2023-09-30T07:08:24.195Z,27.57
2023-09-30T07:10:54.309Z,27.53
2023-09-30T07:13:22.527Z,27.51
2023-09-30T07:15:51.765Z,27.49
2023-09-30T07:18:20.423Z,27.53
2023-09-30T07:20:49.814Z,27.52
2023-09-30T07:23:20.362Z,27.52
2023-09-30T07:25:49.233Z,27.55
2023-09-30T07:28:17.399Z,27.55
2023-09-30T07:30:46.076Z,27.59
2023-09-30T07:33:14.311Z,27.60
2023-09-30T07:35:42.478Z,27.61
2023-09-30T07:38:11.132Z,27.59
2023-09-30T07:40:39.725Z,27.40
2023-09-30T07:43:07.908Z,27.60
2023-09-30T07:45:35.862Z,27.62
2023-09-30T07:48:06.929Z,27.59
2023-09-30T07:50:35.555Z,27.64
2023-09-30T07:53:03.985Z,27.66
2023-09-30T07:55:32.291Z,27.67
2023-09-30T07:58:01.635Z,27.70
2023-09-30T08:00:29.746Z,27.49
2023-09-30T08:02:57.895Z,27.72
2023-09-30T08:05:26.314Z,27.53
2023-09-30T08:07:54.689Z,27.73
2023-09-30T08:10:22.621Z,27.78
2023-09-30T08:12:51.356Z,27.80
2023-09-30T08:15:19.776Z,27.78
2023-09-30T08:17:48.030Z,27.78
2023-09-30T08:20:16.275Z,27.64
2023-09-30T08:22:44.304Z,27.72
2023-09-30T08:25:12.458Z,27.87
2023-09-30T08:27:41.030Z,27.88
2023-09-30T08:30:09.698Z,27.90
2023-09-30T08:32:38.155Z,27.77
2023-09-30T08:35:06.780Z,27.93
2023-09-30T08:37:34.961Z,27.89
2023-09-30T08:40:06.219Z,27.97
2023-09-30T08:42:36.150Z,27.95
2023-09-30T08:45:11.522Z,27.97
2023-09-30T08:47:41.849Z,27.97
2023-09-30T08:50:11.907Z,27.85
2023-09-30T08:52:41.521Z,28.06
2023-09-30T08:55:10.813Z,27.94
2023-09-30T08:57:41.954Z,28.11
2023-09-30T09:00:15.763Z,28.15
2023-09-30T09:02:44.483Z,28.09
2023-09-30T09:05:13.092Z,28.21
2023-09-30T09:07:41.713Z,28.10
2023-09-30T09:10:11.859Z,28.20
2023-09-30T09:12:41.652Z,28.29
2023-09-30T09:15:23.296Z,28.33
2023-09-30T09:17:53.345Z,28.35
2023-09-30T09:20:24.046Z,28.32
2023-09-30T09:22:55.272Z,28.35
2023-09-30T09:25:24.793Z,28.15
2023-09-30T09:27:55.323Z,28.37
2023-09-30T09:30:27.937Z,28.38
2023-09-30T09:33:06.585Z,28.36
2023-09-30T09:35:36.587Z,28.37
2023-09-30T09:38:06.401Z,28.33
2023-09-30T09:40:41.872Z,28.37
2023-09-30T09:43:12.307Z,28.34
2023-09-30T09:45:40.426Z,28.34
2023-09-30T09:48:09.130Z,28.37
2023-09-30T09:50:37.630Z,28.36
2023-09-30T09:53:06.321Z,28.41
2023-09-30T09:55:35.364Z,28.36
2023-09-30T09:58:04.886Z,28.44
2023-09-30T10:00:35.288Z,28.46
2023-09-30T10:03:04.488Z,28.43
2023-09-30T10:05:33.191Z,28.47
2023-09-30T10:08:06.601Z,28.48
2023-09-30T10:10:41.370Z,28.47
2023-09-30T10:13:10.002Z,28.39
2023-09-30T10:15:41.468Z,28.49
2023-09-30T10:18:14.564Z,28.50
2023-09-30T10:20:50.616Z,28.45
2023-09-30T10:23:18.750Z,28.51
2023-09-30T10:25:51.252Z,28.53
2023-09-30T10:28:39.523Z,28.10
2023-09-30T10:31:26.444Z,28.59
2023-09-30T10:34:03.741Z,28.61
2023-09-30T10:36:35.625Z,28.52
2023-09-30T10:39:04.722Z,28.62
2023-09-30T10:41:47.862Z,28.64
2023-09-30T10:44:27.885Z,28.62
2023-09-30T10:46:58.966Z,28.50
2023-09-30T10:49:27.665Z,28.62
2023-09-30T10:52:02.913Z,28.62
2023-09-30T10:54:34.900Z,28.67
2023-09-30T10:57:05.198Z,28.67
2023-09-30T10:59:33.893Z,28.18
2023-09-30T11:02:02.700Z,28.67
2023-09-30T11:04:31.377Z,28.60
2023-09-30T11:07:02.420Z,28.67
2023-09-30T11:09:31.507Z,28.66
2023-09-30T11:11:59.699Z,28.70
2023-09-30T11:14:30.597Z,28.71
2023-09-30T11:17:01.030Z,28.73
2023-09-30T11:19:47.513Z,28.75
2023-09-30T11:22:17.225Z,28.76
2023-09-30T11:24:47.350Z,28.70
2023-09-30T11:27:26.243Z,28.67
2023-09-30T11:29:54.467Z,28.80
2023-09-30T11:32:28.636Z,28.84
2023-09-30T11:34:56.963Z,28.83
2023-09-30T11:37:25.244Z,28.75
2023-09-30T11:39:54.310Z,28.83
2023-09-30T11:42:22.618Z,28.87
2023-09-30T11:44:51.593Z,28.89
2023-09-30T11:47:31.356Z,28.90
2023-09-30T11:49:59.593Z,28.88
2023-09-30T11:52:30.417Z,28.90
2023-09-30T11:54:59.403Z,28.94
2023-09-30T11:57:27.618Z,28.93
2023-09-30T11:59:56.128Z,28.97
2023-09-30T12:02:24.445Z,28.90
2023-09-30T12:04:52.855Z,28.93
2023-09-30T12:07:21.126Z,28.92
2023-09-30T12:09:49.393Z,28.98
2023-09-30T12:12:18.150Z,28.97
2023-09-30T12:14:46.157Z,28.96
2023-09-30T12:17:15.860Z,28.99
2023-09-30T12:19:44.160Z,28.93
2023-09-30T12:22:13.021Z,28.93
2023-09-30T12:24:41.623Z,29.01
2023-09-30T12:27:10.524Z,29.02
2023-09-30T12:29:40.237Z,29.01
2023-09-30T12:32:09.853Z,29.00
2023-09-30T12:34:39.653Z,29.02
2023-09-30T12:37:08.792Z,28.98
2023-09-30T12:39:38.160Z,29.02
2023-09-30T12:42:10.371Z,28.86
2023-09-30T12:44:38.646Z,29.01
2023-09-30T12:47:07.885Z,29.01
2023-09-30T12:49:35.986Z,29.01
2023-09-30T12:52:04.072Z,29.01
2023-09-30T12:54:33.670Z,29.00
2023-09-30T12:57:02.150Z,28.98
2023-09-30T12:59:30.054Z,28.98
2023-09-30T13:01:58.057Z,29.00
2023-09-30T13:04:26.746Z,28.99
2023-09-30T13:06:55.186Z,28.97
2023-09-30T13:09:23.237Z,29.02
2023-09-30T13:11:51.088Z,29.01
2023-09-30T13:14:19.013Z,29.01
2023-09-30T13:16:47.048Z,28.98
2023-09-30T13:19:17.245Z,28.99
2023-09-30T13:21:46.013Z,29.03
2023-09-30T13:24:14.051Z,29.01
2023-09-30T13:26:42.354Z,29.05
2023-09-30T13:29:14.325Z,29.04
2023-09-30T13:31:42.256Z,29.05
2023-09-30T13:34:10.671Z,29.00
2023-09-30T13:36:38.879Z,29.06
2023-09-30T13:39:07.053Z,29.06
2023-09-30T13:41:37.067Z,29.05
2023-09-30T13:44:06.506Z,29.08
2023-09-30T13:46:34.725Z,29.07
2023-09-30T13:49:03.677Z,29.06
2023-09-30T13:51:31.680Z,29.03
2023-09-30T13:53:59.890Z,29.05
2023-09-30T13:56:28.964Z,29.06
2023-09-30T13:58:59.746Z,29.05
2023-09-30T14:01:28.463Z,29.05
2023-09-30T14:03:58.490Z,29.06
2023-09-30T14:06:27.421Z,29.05
2023-09-30T14:08:55.605Z,29.04
2023-09-30T14:11:23.537Z,29.05
2023-09-30T14:13:51.987Z,29.03
2023-09-30T14:16:20.425Z,29.03
2023-09-30T14:18:50.705Z,29.02
2023-09-30T14:21:20.194Z,29.01
2023-09-30T14:23:48.670Z,28.97
2023-09-30T14:26:16.533Z,29.01
2023-09-30T14:28:46.305Z,29.00
2023-09-30T14:31:15.542Z,29.02
2023-09-30T14:33:43.676Z,29.01
2023-09-30T14:36:12.034Z,29.01
2023-09-30T14:38:40.141Z,29.01
2023-09-30T14:41:09.943Z,29.01
2023-09-30T14:43:37.925Z,29.01
2023-09-30T14:46:06.538Z,29.00
2023-09-30T14:48:34.629Z,29.01
2023-09-30T14:51:04.174Z,29.02
2023-09-30T14:53:32.781Z,29.02
2023-09-30T14:56:00.979Z,29.03
2023-09-30T14:58:28.891Z,29.01
2023-09-30T15:00:56.943Z,29.03
2023-09-30T15:03:24.983Z,29.01
2023-09-30T15:05:59.671Z,28.98
2023-09-30T15:08:27.571Z,28.97
2023-09-30T15:10:56.079Z,28.97
2023-09-30T15:13:24.254Z,28.96
2023-09-30T15:15:52.376Z,28.95
2023-09-30T15:18:20.455Z,28.94
2023-09-30T15:20:51.438Z,28.94
2023-09-30T15:23:19.517Z,28.88
2023-09-30T15:25:47.781Z,28.89
2023-09-30T15:28:15.826Z,28.89
2023-09-30T15:30:44.031Z,28.89
2023-09-30T15:33:12.050Z,28.88
2023-09-30T15:35:40.778Z,28.85
2023-09-30T15:38:08.603Z,28.86
2023-09-30T15:40:55.341Z,28.88
2023-09-30T15:43:24.218Z,28.86
2023-09-30T15:45:52.781Z,28.88
2023-09-30T15:48:21.209Z,28.87
2023-09-30T15:50:49.844Z,28.88
2023-09-30T15:53:17.952Z,28.86
2023-09-30T15:55:46.056Z,28.84
2023-09-30T15:58:13.994Z,28.80
2023-09-30T16:00:43.427Z,28.83
2023-09-30T16:03:12.629Z,28.83
2023-09-30T16:05:41.142Z,28.82
2023-09-30T16:08:10.402Z,28.82
2023-09-30T16:10:38.876Z,28.82
2023-09-30T16:13:09.969Z,28.81
2023-09-30T16:15:42.300Z,28.79
2023-09-30T16:18:10.979Z,28.80
2023-09-30T16:20:39.189Z,28.80
2023-09-30T16:23:07.099Z,28.80
2023-09-30T16:25:37.872Z,28.76
2023-09-30T16:28:06.870Z,28.77
2023-09-30T16:30:36.564Z,28.76
2023-09-30T16:33:04.765Z,28.69
2023-09-30T16:35:32.684Z,28.70
2023-09-30T16:38:01.111Z,28.69
2023-09-30T16:40:29.509Z,28.70
2023-09-30T16:42:58.122Z,28.73
2023-09-30T16:45:26.723Z,28.58
2023-09-30T16:47:55.618Z,28.70
2023-09-30T16:50:23.737Z,28.68
2023-09-30T16:52:51.529Z,28.69
2023-09-30T16:55:19.565Z,28.68
2023-09-30T16:57:47.534Z,28.61
2023-09-30T17:00:16.434Z,28.67
2023-09-30T17:02:44.507Z,28.64
2023-09-30T17:05:13.156Z,28.65
2023-09-30T17:07:41.402Z,28.63
2023-09-30T17:10:13.365Z,28.62
2023-09-30T17:12:41.450Z,28.60
2023-09-30T17:15:10.315Z,28.60
2023-09-30T17:17:38.942Z,28.51
2023-09-30T17:20:08.912Z,28.56
2023-09-30T17:22:36.947Z,28.56
2023-09-30T17:25:05.566Z,28.53
2023-09-30T17:27:33.829Z,28.52
2023-09-30T17:30:01.858Z,28.49
2023-09-30T17:32:29.969Z,28.51
2023-09-30T17:35:00.067Z,28.48
2023-09-30T17:37:30.754Z,28.39
2023-09-30T17:39:59.808Z,28.49
2023-09-30T17:42:28.873Z,28.48
2023-09-30T17:44:57.591Z,28.46
2023-09-30T17:47:27.385Z,28.28
2023-09-30T17:49:55.458Z,28.45
2023-09-30T17:52:24.036Z,28.42
2023-09-30T17:54:52.561Z,28.42
2023-09-30T17:57:20.884Z,28.39
2023-09-30T17:59:49.018Z,28.38
2023-09-30T18:02:16.986Z,28.40
2023-09-30T18:04:45.125Z,28.34
2023-09-30T18:07:13.603Z,28.37
2023-09-30T18:09:41.483Z,28.37
2023-09-30T18:12:09.570Z,28.35
2023-09-30T18:14:37.455Z,28.33
2023-09-30T18:17:05.579Z,28.35
2023-09-30T18:19:33.515Z,28.34
2023-09-30T18:22:01.418Z,28.35
2023-09-30T18:24:29.436Z,28.34
2023-09-30T18:26:57.438Z,28.36
2023-09-30T18:29:26.365Z,28.37
2023-09-30T18:31:54.846Z,28.35
2023-09-30T18:34:25.788Z,28.35
2023-09-30T18:36:53.947Z,28.33
2023-09-30T18:39:25.726Z,28.31
2023-09-30T18:41:55.115Z,28.28
2023-09-30T18:44:23.073Z,28.28
2023-09-30T18:46:52.912Z,28.25
2023-09-30T18:49:21.048Z,28.23
2023-09-30T18:51:51.533Z,28.22
2023-09-30T18:54:19.623Z,28.23
2023-09-30T18:56:47.878Z,28.23
2023-09-30T18:59:21.939Z,28.22
2023-09-30T19:01:50.426Z,28.21
2023-09-30T19:04:19.593Z,28.20
2023-09-30T19:06:47.764Z,28.20
2023-09-30T19:09:16.130Z,28.23
2023-09-30T19:11:45.856Z,28.23
2023-09-30T19:14:15.133Z,28.22
2023-09-30T19:16:44.867Z,28.21
2023-09-30T19:19:13.048Z,28.23
2023-09-30T19:21:41.415Z,28.22
2023-09-30T19:24:10.290Z,28.19
2023-09-30T19:26:38.412Z,28.23
2023-09-30T19:29:06.841Z,28.25
2023-09-30T19:31:35.084Z,28.29
2023-09-30T19:34:03.352Z,28.28
2023-09-30T19:36:31.533Z,28.29
2023-09-30T19:38:59.560Z,28.09
2023-09-30T19:41:27.676Z,28.27
2023-09-30T19:43:55.660Z,28.25
2023-09-30T19:46:25.347Z,28.26
2023-09-30T19:48:53.848Z,28.25
2023-09-30T19:51:26.107Z,28.21
2023-09-30T19:53:53.917Z,28.25
2023-09-30T19:56:21.831Z,28.27
2023-09-30T19:58:49.854Z,28.28
2023-09-30T20:01:21.237Z,28.27
2023-09-30T20:03:49.837Z,28.27
2023-09-30T20:06:19.148Z,28.29
2023-09-30T20:08:49.367Z,28.28
2023-09-30T20:11:24.729Z,28.29
2023-09-30T20:13:53.458Z,28.28
2023-09-30T20:16:22.278Z,28.29
2023-09-30T20:18:50.543Z,28.27
2023-09-30T20:21:18.798Z,28.29
2023-09-30T20:23:47.728Z,28.28
2023-09-30T20:26:23.050Z,28.25
2023-09-30T20:28:51.979Z,28.29
2023-09-30T20:31:20.180Z,28.29
2023-09-30T20:33:49.981Z,28.21
2023-09-30T20:36:18.065Z,28.30
2023-09-30T20:38:46.095Z,28.30
2023-09-30T20:41:14.238Z,28.29
2023-09-30T20:43:42.617Z,28.29
2023-09-30T20:46:10.826Z,28.29
2023-09-30T20:48:39.295Z,28.25
2023-09-30T20:51:08.563Z,28.29
2023-09-30T20:53:37.326Z,28.30
2023-09-30T20:56:11.923Z,28.29
2023-09-30T20:58:40.105Z,28.25
2023-09-30T21:01:12.437Z,28.28
2023-09-30T21:03:40.597Z,28.27
2023-09-30T21:06:09.821Z,28.21
2023-09-30T21:08:39.404Z,28.27
2023-09-30T21:11:08.286Z,28.25
2023-09-30T21:13:36.586Z,28.27
2023-09-30T21:16:05.300Z,28.27
2023-09-30T21:18:36.403Z,28.24
2023-09-30T21:21:04.480Z,28.23
2023-09-30T21:23:32.487Z,28.21
2023-09-30T21:26:00.541Z,28.22
2023-09-30T21:28:28.790Z,28.21
2023-09-30T21:30:56.650Z,28.22
2023-09-30T21:33:24.545Z,28.22
2023-09-30T21:35:59.026Z,28.22
2023-09-30T21:38:27.135Z,28.21
2023-09-30T21:40:55.163Z,28.21
2023-09-30T21:43:23.264Z,28.14
2023-09-30T21:45:51.441Z,28.19
2023-09-30T21:48:19.267Z,28.15
2023-09-30T21:50:47.191Z,28.16
2023-09-30T21:53:16.417Z,28.15
2023-09-30T21:55:44.993Z,28.15
2023-09-30T21:58:12.978Z,28.15
2023-09-30T22:00:41.732Z,28.17
2023-09-30T22:03:12.195Z,28.13
2023-09-30T22:05:42.211Z,28.12
2023-09-30T22:08:10.218Z,28.08
2023-09-30T22:10:38.407Z,28.11
2023-09-30T22:13:06.475Z,28.12
2023-09-30T22:15:34.391Z,28.11
2023-09-30T22:18:04.090Z,28.13
2023-09-30T22:20:33.882Z,28.14
2023-09-30T22:23:05.226Z,28.15
2023-09-30T22:25:36.597Z,28.15
2023-09-30T22:28:09.297Z,28.15
2023-09-30T22:30:38.063Z,28.16
2023-09-30T22:33:07.556Z,28.14
2023-09-30T22:35:36.485Z,28.12
2023-09-30T22:38:04.780Z,28.15
2023-09-30T22:40:32.624Z,28.14
2023-09-30T22:43:01.023Z,28.16
2023-09-30T22:45:30.120Z,28.15
2023-09-30T22:47:58.399Z,28.03
2023-09-30T22:50:27.313Z,28.16
2023-09-30T22:52:56.630Z,28.15
2023-09-30T22:55:25.378Z,28.09
2023-09-30T22:57:55.304Z,28.10
2023-09-30T23:00:32.023Z,28.15
2023-09-30T23:02:59.980Z,28.13
2023-09-30T23:05:29.471Z,28.13
2023-09-30T23:07:57.774Z,28.11
2023-09-30T23:10:26.082Z,28.13
2023-09-30T23:12:54.134Z,28.12
2023-09-30T23:15:23.319Z,28.13
2023-09-30T23:17:54.107Z,28.11
2023-09-30T23:20:23.232Z,28.11
2023-09-30T23:22:53.960Z,28.11
2023-09-30T23:25:36.320Z,28.12
2023-09-30T23:28:05.008Z,28.12
2023-09-30T23:30:35.501Z,28.11
2023-09-30T23:33:06.610Z,28.08
2023-09-30T23:35:36.268Z,28.09
2023-09-30T23:38:05.088Z,28.07
2023-09-30T23:40:39.683Z,28.06
2023-09-30T23:43:09.148Z,28.07
2023-09-30T23:45:39.129Z,28.04
2023-09-30T23:48:08.973Z,28.05
2023-09-30T23:50:39.048Z,28.05
2023-09-30T23:53:07.500Z,28.05
2023-09-30T23:55:39.950Z,28.07
2023-09-30T23:58:11.495Z,28.04
